Portada
METAR-TAF:

METAR-TAF

Aeroports :

Nakashibetsu, Japó

latitud: 43-34N, longitud: 144-58E, altitud: 66 m

Observació

L'informe es va fer fa 47 minuts, a les 00:00 UTC
Vent 6 kt del Nord/Nord-Est, variant entre Nord-Oest i Est/Nord-Est
Temperatura 17°C
Humitat 100%
Pressió 1002 hPa
Visibilitat: 1500 m
Escasses núvols a una alçada de 100 ft
Cel ennuvolat a una alçada de 200 ft
Cel ennuvolat a una alçada de 300 ft
xàfecs de pluja, boirina

METAR: RJCN 070000Z 02006KT 320V070 1500 R08/1500VP2000N -SHRA BR FEW001 BKN002 BKN003 17/17 Q1002

Hora: 09:47 (00:47 UTC)


TAF: manca

Observacions i pronòstics meteorològics de més de 4000 aeroports (METAR i TAF).

Les estacions disponibles són els punts grocs i vermells al mapa.

Posi el ratolí al punt desitjat per veure el nom de l'estació.

Feu clic per veure les observacions i els pronòstics meteorològics.

Per canviar el mapa: feu clic els botons verds amb una creu de color negre per apropar; al botó verd amb un guió per allunyar la imatge; o en les fletxes verdes per a mapes adjacents.


METAR-TAF: